createdAt,value
2022-12-08T00:01:15.241Z,9.35
2022-12-08T00:03:42.367Z,9.27
2022-12-08T00:06:36.526Z,9.33
2022-12-08T00:09:21.957Z,9.40
2022-12-08T00:11:59.803Z,9.50
2022-12-08T00:14:28.254Z,9.44
2022-12-08T00:16:55.053Z,9.44
2022-12-08T00:19:22.081Z,9.40
2022-12-08T00:21:48.669Z,9.37
2022-12-08T00:24:15.390Z,9.35
2022-12-08T00:26:41.917Z,9.17
2022-12-08T00:29:13.179Z,9.23
2022-12-08T00:31:43.753Z,9.31
2022-12-08T00:34:12.405Z,9.27
2022-12-08T00:36:38.913Z,9.20
2022-12-08T00:39:06.054Z,9.41
2022-12-08T00:41:51.406Z,9.14
2022-12-08T00:44:18.916Z,9.02
2022-12-08T00:46:46.906Z,9.13
2022-12-08T00:49:14.439Z,9.25
2022-12-08T00:51:42.360Z,9.20
2022-12-08T00:54:09.525Z,9.33
2022-12-08T00:56:36.283Z,9.34
2022-12-08T00:59:04.998Z,9.41
2022-12-08T01:01:31.651Z,9.37
2022-12-08T01:03:58.233Z,9.35
2022-12-08T01:06:25.719Z,9.31
2022-12-08T01:08:52.292Z,9.31
2022-12-08T01:11:19.704Z,9.33
2022-12-08T01:13:46.774Z,9.31
2022-12-08T01:16:21.572Z,9.35
2022-12-08T01:18:48.686Z,9.40
2022-12-08T01:21:15.288Z,9.37
2022-12-08T01:23:41.779Z,9.37
2022-12-08T01:26:10.495Z,9.41
2022-12-08T01:28:37.796Z,9.43
2022-12-08T01:31:04.762Z,9.38
2022-12-08T01:33:32.116Z,9.35
2022-12-08T01:36:04.225Z,9.28
2022-12-08T01:38:31.233Z,9.32
2022-12-08T01:40:58.207Z,9.40
2022-12-08T01:43:24.717Z,9.40
2022-12-08T01:45:51.251Z,9.38
2022-12-08T01:48:22.378Z,9.38
2022-12-08T01:50:49.809Z,9.43
2022-12-08T01:53:32.847Z,9.37
2022-12-08T01:56:05.616Z,9.32
2022-12-08T01:58:36.120Z,9.37
2022-12-08T02:01:02.851Z,9.32
2022-12-08T02:03:44.103Z,9.28
2022-12-08T02:06:11.607Z,9.36
2022-12-08T02:08:41.257Z,9.26
2022-12-08T02:11:11.968Z,9.20
2022-12-08T02:13:40.409Z,9.21
2022-12-08T02:16:16.098Z,9.23
2022-12-08T02:19:32.169Z,9.15
2022-12-08T02:22:09.095Z,8.87
2022-12-08T02:24:35.668Z,8.96
2022-12-08T02:27:23.125Z,9.08
2022-12-08T02:30:08.016Z,9.09
2022-12-08T02:33:21.760Z,9.15
2022-12-08T02:36:10.352Z,9.10
2022-12-08T02:38:49.307Z,9.14
2022-12-08T02:41:29.158Z,9.09
2022-12-08T02:44:12.253Z,9.09
2022-12-08T02:46:46.513Z,9.04
2022-12-08T02:49:15.131Z,9.01
2022-12-08T02:51:41.620Z,8.88
2022-12-08T02:54:08.976Z,8.89
2022-12-08T02:56:44.514Z,8.87
2022-12-08T02:59:32.547Z,8.94
2022-12-08T03:02:02.225Z,8.94
2022-12-08T03:04:31.685Z,8.93
2022-12-08T03:07:34.736Z,9.08
2022-12-08T03:10:16.135Z,8.96
2022-12-08T03:12:53.787Z,9.01
2022-12-08T03:15:21.766Z,9.03
2022-12-08T03:17:53.157Z,9.05
2022-12-08T03:20:23.661Z,8.93
2022-12-08T03:22:55.549Z,9.04
2022-12-08T03:25:24.676Z,8.99
2022-12-08T03:27:52.216Z,8.98
2022-12-08T03:30:18.811Z,9.02
2022-12-08T03:32:54.791Z,8.97
2022-12-08T03:35:25.965Z,9.09
2022-12-08T03:38:01.149Z,8.90
2022-12-08T03:40:27.668Z,9.03
2022-12-08T03:42:54.172Z,9.03
2022-12-08T03:45:21.460Z,8.99
2022-12-08T03:47:47.935Z,9.08
2022-12-08T03:50:14.492Z,9.11
2022-12-08T03:52:40.984Z,9.04
2022-12-08T03:55:07.889Z,9.04
2022-12-08T03:57:34.503Z,9.37
2022-12-08T04:00:01.315Z,9.35
2022-12-08T04:02:27.958Z,9.41
2022-12-08T04:04:54.508Z,9.38
2022-12-08T04:07:21.007Z,9.40
2022-12-08T04:09:47.572Z,9.30
2022-12-08T04:12:14.132Z,9.24
2022-12-08T04:14:40.633Z,9.24
2022-12-08T04:17:07.162Z,9.26
2022-12-08T04:19:33.659Z,9.27
2022-12-08T04:22:00.219Z,9.18
2022-12-08T04:24:26.945Z,9.18
2022-12-08T04:26:53.531Z,9.31
2022-12-08T04:29:20.082Z,9.14
2022-12-08T04:31:46.654Z,9.12
2022-12-08T04:34:13.273Z,9.15
2022-12-08T04:36:39.805Z,9.20
2022-12-08T04:39:06.780Z,9.14
2022-12-08T04:41:33.376Z,9.16
2022-12-08T04:43:59.884Z,9.20
2022-12-08T04:46:26.435Z,9.20
2022-12-08T04:48:53.076Z,8.77
2022-12-08T04:51:20.092Z,8.95
2022-12-08T04:53:47.375Z,9.11
2022-12-08T04:56:18.908Z,9.19
2022-12-08T04:58:45.713Z,9.20
2022-12-08T05:01:12.736Z,9.20
2022-12-08T05:03:39.382Z,9.14
2022-12-08T05:06:06.110Z,9.21
2022-12-08T05:08:33.192Z,9.19
2022-12-08T05:11:08.696Z,9.21
2022-12-08T05:13:35.272Z,9.26
2022-12-08T05:16:03.854Z,9.22
2022-12-08T05:18:30.489Z,9.16
2022-12-08T05:20:57.073Z,9.19
2022-12-08T05:23:23.654Z,9.16
2022-12-08T05:25:50.223Z,9.20
2022-12-08T05:28:40.778Z,9.11
2022-12-08T05:31:03.244Z,9.17
2022-12-08T05:33:29.770Z,9.18
2022-12-08T05:35:56.333Z,9.15
2022-12-08T05:38:22.902Z,9.18
2022-12-08T05:40:49.585Z,9.10
2022-12-08T05:43:16.123Z,9.19
2022-12-08T05:45:42.742Z,9.11
2022-12-08T05:48:09.346Z,9.09
2022-12-08T05:50:35.915Z,9.14
2022-12-08T05:53:04.391Z,9.14
2022-12-08T05:55:30.937Z,9.11
2022-12-08T05:57:57.507Z,9.07
2022-12-08T06:00:24.052Z,9.09
2022-12-08T06:02:50.765Z,9.11
2022-12-08T06:05:17.453Z,9.10
2022-12-08T06:07:44.015Z,9.01
2022-12-08T06:10:10.944Z,8.88
2022-12-08T06:12:37.463Z,9.12
2022-12-08T06:15:04.387Z,9.03
2022-12-08T06:17:30.929Z,9.07
2022-12-08T06:19:57.486Z,9.05
2022-12-08T06:22:24.203Z,8.82
2022-12-08T06:24:50.704Z,8.76
2022-12-08T06:27:17.200Z,8.80
2022-12-08T06:29:43.688Z,8.86
2022-12-08T06:32:11.604Z,8.89
2022-12-08T06:34:38.278Z,8.87
2022-12-08T06:37:04.775Z,8.97
2022-12-08T06:39:31.293Z,9.02
2022-12-08T06:42:16.467Z,8.84
2022-12-08T06:44:43.407Z,8.86
2022-12-08T06:47:09.916Z,8.88
2022-12-08T06:49:36.446Z,8.99
2022-12-08T06:52:03.010Z,9.05
2022-12-08T06:54:29.523Z,8.94
2022-12-08T06:56:56.075Z,8.98
2022-12-08T06:59:22.697Z,8.87
2022-12-08T07:01:49.278Z,8.96
2022-12-08T07:04:15.854Z,8.83
2022-12-08T07:06:42.496Z,8.87
2022-12-08T07:09:09.050Z,8.99
2022-12-08T07:11:35.699Z,8.94
2022-12-08T07:14:02.704Z,8.94
2022-12-08T07:16:29.273Z,9.05
2022-12-08T07:18:55.814Z,9.10
2022-12-08T07:21:22.669Z,9.18
2022-12-08T07:23:54.415Z,9.17
2022-12-08T07:26:24.400Z,9.21
2022-12-08T07:28:50.887Z,9.26
2022-12-08T07:31:20.251Z,9.12
2022-12-08T07:33:47.543Z,9.02
2022-12-08T07:36:14.351Z,9.10
2022-12-08T07:38:40.886Z,9.11
2022-12-08T07:41:12.343Z,9.30
2022-12-08T07:43:38.891Z,9.42
2022-12-08T07:46:05.556Z,9.41
2022-12-08T07:48:32.167Z,9.52
2022-12-08T07:51:03.727Z,9.51
2022-12-08T07:53:31.166Z,9.64
2022-12-08T07:55:57.991Z,9.62
2022-12-08T07:58:25.633Z,9.62
2022-12-08T08:00:52.539Z,9.64
2022-12-08T08:03:19.235Z,9.53
2022-12-08T08:05:48.174Z,9.60
2022-12-08T08:08:14.710Z,9.55
2022-12-08T08:10:41.232Z,9.74
2022-12-08T08:13:08.656Z,9.59
2022-12-08T08:15:35.356Z,9.67
2022-12-08T08:18:01.999Z,9.81
2022-12-08T08:20:28.508Z,9.98
2022-12-08T08:22:55.073Z,9.87
2022-12-08T08:25:25.032Z,9.99
2022-12-08T08:27:51.728Z,10.18
2022-12-08T08:30:20.824Z,10.29
2022-12-08T08:32:48.972Z,10.43
2022-12-08T08:35:16.078Z,10.62
2022-12-08T08:37:48.335Z,10.75
2022-12-08T08:40:15.790Z,10.79
2022-12-08T08:42:42.285Z,10.88
2022-12-08T08:45:09.097Z,11.01
2022-12-08T08:47:35.724Z,11.14
2022-12-08T08:50:02.545Z,10.92
2022-12-08T08:52:29.386Z,10.99
2022-12-08T08:54:55.916Z,10.96
2022-12-08T08:57:25.800Z,10.98
2022-12-08T08:59:53.699Z,10.81
2022-12-08T09:02:21.199Z,10.92
2022-12-08T09:04:47.918Z,11.01
2022-12-08T09:07:15.945Z,10.96
2022-12-08T09:09:42.624Z,10.59
2022-12-08T09:12:09.914Z,10.80
2022-12-08T09:14:36.504Z,11.11
2022-12-08T09:17:03.036Z,11.23
2022-12-08T09:19:29.588Z,11.10
2022-12-08T09:21:56.188Z,11.33
2022-12-08T09:24:23.103Z,11.55
2022-12-08T09:26:49.945Z,11.75
2022-12-08T09:29:17.567Z,11.99
2022-12-08T09:31:44.292Z,11.82
2022-12-08T09:34:12.599Z,11.93
2022-12-08T09:36:40.016Z,12.08
2022-12-08T09:39:06.687Z,11.92
2022-12-08T09:41:42.039Z,12.14
2022-12-08T09:44:32.412Z,12.21
2022-12-08T09:47:01.423Z,12.20
2022-12-08T09:49:42.403Z,12.36
2022-12-08T09:52:25.830Z,12.62
2022-12-08T09:54:52.614Z,12.52
2022-12-08T09:57:22.465Z,12.67
2022-12-08T09:59:53.695Z,12.65
2022-12-08T10:02:23.551Z,12.87
2022-12-08T10:04:50.298Z,12.95
2022-12-08T10:07:30.704Z,12.60
2022-12-08T10:10:21.189Z,12.51
2022-12-08T10:12:53.905Z,12.49
2022-12-08T10:15:36.984Z,12.53
2022-12-08T10:18:12.355Z,12.60
2022-12-08T10:20:42.305Z,12.52
2022-12-08T10:23:24.190Z,12.43
2022-12-08T10:26:08.614Z,12.35
2022-12-08T10:28:37.746Z,12.40
2022-12-08T10:31:17.643Z,12.49
2022-12-08T10:33:45.231Z,12.75
2022-12-08T10:36:11.826Z,12.96
2022-12-08T10:38:40.086Z,12.90
2022-12-08T10:41:13.985Z,12.73
2022-12-08T10:43:46.654Z,12.97
2022-12-08T10:46:19.600Z,13.49
2022-12-08T10:49:24.225Z,13.54
2022-12-08T10:51:50.825Z,13.59
2022-12-08T10:54:43.761Z,13.81
2022-12-08T10:57:21.268Z,14.13
2022-12-08T10:59:47.884Z,14.32
2022-12-08T11:02:20.264Z,14.48
2022-12-08T11:04:47.396Z,15.88
2022-12-08T11:07:22.601Z,16.71
2022-12-08T11:09:55.337Z,15.62
2022-12-08T11:12:22.891Z,15.17
2022-12-08T11:15:03.309Z,14.91
2022-12-08T11:17:39.302Z,14.13
2022-12-08T11:20:09.008Z,13.92
2022-12-08T11:22:40.183Z,13.81
2022-12-08T11:25:16.035Z,13.77
2022-12-08T11:27:45.460Z,13.91
2022-12-08T11:30:38.873Z,13.83
2022-12-08T11:33:19.392Z,13.97
2022-12-08T11:35:51.742Z,14.05
2022-12-08T11:38:22.696Z,13.63
2022-12-08T11:40:57.175Z,13.28
2022-12-08T11:43:54.964Z,12.83
2022-12-08T11:46:26.431Z,12.95
2022-12-08T11:49:06.227Z,12.93
2022-12-08T11:51:38.272Z,12.95
2022-12-08T11:54:13.886Z,12.77
2022-12-08T11:56:45.560Z,12.81
2022-12-08T11:59:25.096Z,12.87
2022-12-08T12:01:51.777Z,12.89
2022-12-08T12:05:00.023Z,12.88
2022-12-08T12:07:26.712Z,12.66
2022-12-08T12:10:13.521Z,12.58
2022-12-08T12:12:45.907Z,12.52
2022-12-08T12:15:51.317Z,12.75
2022-12-08T12:18:29.760Z,12.79
2022-12-08T12:20:59.061Z,12.85
2022-12-08T12:23:47.290Z,12.92
2022-12-08T12:26:20.542Z,12.88
2022-12-08T12:28:55.816Z,12.95
2022-12-08T12:31:41.370Z,12.83
2022-12-08T12:34:13.621Z,12.64
2022-12-08T12:37:06.667Z,12.67
2022-12-08T12:39:47.068Z,12.77
2022-12-08T12:42:35.560Z,12.96
2022-12-08T12:45:16.047Z,13.01
2022-12-08T12:48:08.290Z,13.03
2022-12-08T12:50:52.153Z,13.13
2022-12-08T12:53:18.973Z,13.34
2022-12-08T12:55:45.420Z,13.31
2022-12-08T12:58:27.211Z,13.47
2022-12-08T13:01:15.312Z,13.23
2022-12-08T13:04:07.157Z,13.27
2022-12-08T13:06:42.270Z,12.92
2022-12-08T13:09:21.305Z,12.92
2022-12-08T13:11:52.549Z,12.69
2022-12-08T13:14:26.670Z,12.69
2022-12-08T13:16:56.102Z,12.84
2022-12-08T13:19:22.789Z,12.74
2022-12-08T13:21:49.347Z,12.70
2022-12-08T13:24:24.741Z,13.42
2022-12-08T13:27:11.197Z,14.58
2022-12-08T13:29:39.142Z,15.72
2022-12-08T13:32:08.672Z,16.17
2022-12-08T13:34:45.965Z,16.04
2022-12-08T13:37:33.154Z,15.61
2022-12-08T13:40:22.542Z,14.25
2022-12-08T13:43:18.167Z,14.03
2022-12-08T13:46:48.651Z,13.89
2022-12-08T13:57:32.764Z,13.17
2022-12-08T14:00:02.114Z,13.11
2022-12-08T14:02:47.788Z,13.06
2022-12-08T14:05:34.672Z,13.03
2022-12-08T14:08:50.386Z,13.04
2022-12-08T14:11:07.455Z,13.00
2022-12-08T14:13:34.631Z,13.01
2022-12-08T14:16:02.245Z,13.07
2022-12-08T14:18:31.646Z,13.12
2022-12-08T14:21:20.500Z,12.86
2022-12-08T14:23:48.044Z,12.83
2022-12-08T14:26:14.608Z,12.78
2022-12-08T14:28:44.803Z,12.83
2022-12-08T14:31:14.014Z,12.81
2022-12-08T14:33:43.927Z,12.66
2022-12-08T14:36:11.821Z,12.66
2022-12-08T14:38:38.576Z,12.60
2022-12-08T14:41:08.618Z,12.59
2022-12-08T14:43:35.477Z,12.50
2022-12-08T14:46:19.949Z,12.39
2022-12-08T14:48:46.573Z,12.44
2022-12-08T14:51:21.391Z,12.41
2022-12-08T14:53:56.163Z,12.17
2022-12-08T14:56:24.490Z,12.09
2022-12-08T14:59:22.869Z,12.04
2022-12-08T15:01:52.743Z,12.04
2022-12-08T15:04:24.445Z,11.78
2022-12-08T15:07:00.562Z,11.72
2022-12-08T15:09:37.773Z,11.65
2022-12-08T15:12:07.635Z,11.59
2022-12-08T15:14:37.139Z,11.50
2022-12-08T15:17:24.208Z,11.41
2022-12-08T15:19:58.179Z,11.23
2022-12-08T15:22:24.875Z,11.19
2022-12-08T15:24:51.394Z,11.18
2022-12-08T15:27:20.734Z,11.03
2022-12-08T15:29:47.986Z,10.91
2022-12-08T15:32:18.792Z,10.73
2022-12-08T15:34:45.388Z,10.71
2022-12-08T15:37:23.266Z,10.72
2022-12-08T15:39:50.555Z,10.64
2022-12-08T15:42:17.175Z,10.54
2022-12-08T15:44:44.216Z,10.52
